PWSweather.com
Personal Weather Stations
Station Observations
PHMDWX
Perry Hall, MD 21236

Perry Hall, MD 21236

Lat: 39.418318, Lon: -76.490039

Elevation: 305

Station Type: Davis Vantage Pro

www.phmdwx.net

High Low Average
Temperature 37.9°F3.3°F 26.9°F-2.8°F 31.2°F-0.4°F
Dew Point 32.0°F0.0°F 20.7°F-6.3°F 27.9°F-2.3°F
Winds 3.9 mph SE6.3 mph SE Calm Calm 0.5 mph 0.8 mph
Wind Gusts 6.0 mph9.7 mph -- 0.9 mph1.4 mph
Humidity 97% 77% 88%
Pressure 30.46 in1031.50 in 30.30 in1026.10 in -
Precipitation 0.00 in0.00 in - -
Hour Temp Dew Point Humidity Winds Wind Gusts Pressure Precip Precip Rate Daily Precip Total
12:00 AM 26.9°F-2.8°C 20.7°F-6.3°C 77% 0.2 mph NE0.3 kmh NE -- 30.45 in1031.2 mb - 0.00 in0.0 mm 0.00 in0.0 mm
12:30 AM 26.9°F-2.8°C 20.7°F-6.3°C 77% Calm Calm -- 30.44 in1030.8 mb - 0.00 in0.0 mm 0.00 in0.0 mm
01:00 AM 27.0°F-2.8°C 20.7°F-6.3°C 77% 0.1 mph NE0.2 kmh NE 1.0 mph1.6 kmh 30.44 in1030.8 mb - 0.00 in0.0 mm 0.00 in0.0 mm
01:30 AM 27.0°F-2.8°C 21.1°F-6.1°C 78% Calm Calm -- 30.44 in1030.8 mb - 0.00 in0.0 mm 0.00 in0.0 mm
02:00 AM 27.2°F-2.7°C 21.2°F-6.0°C 78% Calm Calm -- 30.44 in1030.8 mb - 0.00 in0.0 mm 0.00 in0.0 mm
02:30 AM 27.2°F-2.7°C 21.5°F-5.8°C 79% Calm Calm -- 30.44 in1030.8 mb - 0.00 in0.0 mm 0.00 in0.0 mm
03:00 AM 27.3°F-2.6°C 22.5°F-5.3°C 82% Calm Calm -- 30.44 in1030.8 mb - 0.00 in0.0 mm 0.00 in0.0 mm
03:30 AM 27.2°F-2.7°C 24.1°F-4.4°C 88% Calm Calm -- 30.44 in1030.8 mb - 0.00 in0.0 mm 0.00 in0.0 mm
04:00 AM 27.0°F-2.8°C 24.7°F-4.1°C 91% Calm Calm -- 30.43 in1030.5 mb - 0.00 in0.0 mm 0.00 in0.0 mm
04:30 AM 27.0°F-2.8°C 25.2°F-3.8°C 93% 0.6 mph NE1.0 kmh NE 2.0 mph3.2 kmh 30.43 in1030.5 mb - 0.00 in0.0 mm 0.00 in0.0 mm
05:00 AM 27.2°F-2.7°C 25.7°F-3.5°C 94% Calm Calm -- 30.44 in1030.8 mb - 0.00 in0.0 mm 0.00 in0.0 mm
05:30 AM 27.3°F-2.6°C 26.1°F-3.3°C 95% Calm Calm -- 30.44 in1030.8 mb - 0.00 in0.0 mm 0.00 in0.0 mm
06:00 AM 27.5°F-2.5°C 26.3°F-3.2°C 95% Calm Calm -- 30.45 in1031.2 mb - 0.00 in0.0 mm 0.00 in0.0 mm
06:30 AM 27.6°F-2.4°C 26.6°F-3.0°C 96% 0.4 mph NE0.6 kmh NE 2.0 mph3.2 kmh 30.45 in1031.2 mb - 0.00 in0.0 mm 0.00 in0.0 mm
07:00 AM 27.9°F-2.3°C 26.9°F-2.8°C 96% Calm Calm -- 30.46 in1031.5 mb - 0.00 in0.0 mm 0.00 in0.0 mm
07:30 AM 28.2°F-2.1°C 27.5°F-2.5°C 97% Calm Calm -- 30.45 in1031.2 mb - 0.00 in0.0 mm 0.00 in0.0 mm
08:00 AM 28.4°F-2.0°C 27.7°F-2.4°C 97% 0.1 mph NE0.2 kmh NE -- 30.45 in1031.2 mb - 0.00 in0.0 mm 0.00 in0.0 mm
08:30 AM 28.5°F-1.9°C 27.8°F-2.3°C 97% Calm Calm -- 30.46 in1031.5 mb - 0.00 in0.0 mm 0.00 in0.0 mm
09:00 AM 29.0°F-1.7°C 28.3°F-2.1°C 97% Calm Calm 1.0 mph1.6 kmh 30.46 in1031.5 mb - 0.00 in0.0 mm 0.00 in0.0 mm
09:30 AM 29.4°F-1.4°C 28.4°F-2.0°C 96% 0.5 mph NE0.8 kmh NE 1.0 mph1.6 kmh 30.46 in1031.5 mb - 0.00 in0.0 mm 0.00 in0.0 mm
10:00 AM 29.8°F-1.2°C 28.8°F-1.8°C 96% 0.1 mph NE0.2 kmh NE 1.0 mph1.6 kmh 30.46 in1031.5 mb - 0.00 in0.0 mm 0.00 in0.0 mm
10:30 AM 31.0°F-0.6°C 29.7°F-1.3°C 95% Calm Calm 1.0 mph1.6 kmh 30.45 in1031.2 mb - 0.00 in0.0 mm 0.00 in0.0 mm
11:00 AM 31.9°F-0.1°C 29.8°F-1.2°C 92% Calm Calm -- 30.45 in1031.2 mb - 0.00 in0.0 mm 0.00 in0.0 mm
11:30 AM 32.2°F0.1°C 29.8°F-1.2°C 91% 0.8 mph E1.3 kmh E 1.0 mph1.6 kmh 30.44 in1030.8 mb - 0.00 in0.0 mm 0.00 in0.0 mm
12:00 PM 33.8°F1.0°C 30.3°F-0.9°C 87% Calm Calm 1.0 mph1.6 kmh 30.42 in1030.1 mb - 0.00 in0.0 mm 0.00 in0.0 mm
12:30 PM 36.0°F2.2°C 30.7°F-0.7°C 81% 3.6 mph SSE5.8 kmh SSE 5.0 mph8.0 kmh 30.39 in1029.1 mb - 0.00 in0.0 mm 0.00 in0.0 mm
01:00 PM 36.8°F2.7°C 30.9°F-0.6°C 79% 0.1 mph S0.2 kmh S -- 30.38 in1028.8 mb - 0.00 in0.0 mm 0.00 in0.0 mm
01:30 PM 37.2°F2.9°C 31.0°F-0.6°C 78% 1.0 mph SSE1.6 kmh SSE 2.0 mph3.2 kmh 30.37 in1028.4 mb - 0.00 in0.0 mm 0.00 in0.0 mm
02:00 PM 36.8°F2.7°C 30.9°F-0.6°C 79% 3.4 mph SSE5.5 kmh SSE 6.0 mph9.7 kmh 30.36 in1028.1 mb - 0.00 in0.0 mm 0.00 in0.0 mm
02:30 PM 37.3°F2.9°C 31.4°F-0.3°C 79% 3.9 mph SE6.3 kmh SE 6.0 mph9.7 kmh 30.35 in1027.8 mb - 0.00 in0.0 mm 0.00 in0.0 mm
03:00 PM 37.6°F3.1°C 31.7°F-0.2°C 79% 2.8 mph SSE4.5 kmh SSE 3.0 mph4.8 kmh 30.34 in1027.4 mb - 0.00 in0.0 mm 0.00 in0.0 mm
03:30 PM 37.6°F3.1°C 31.7°F-0.2°C 79% 1.1 mph S1.8 kmh S 1.0 mph1.6 kmh 30.35 in1027.8 mb - 0.00 in0.0 mm 0.00 in0.0 mm
04:00 PM 37.9°F3.3°C 32.0°F0.0°C 79% Calm Calm -- 30.34 in1027.4 mb - 0.00 in0.0 mm 0.00 in0.0 mm
04:30 PM 37.5°F3.1°C 31.9°F-0.1°C 80% Calm Calm -- 30.34 in1027.4 mb - 0.00 in0.0 mm 0.00 in0.0 mm
05:00 PM 35.9°F2.2°C 30.6°F-0.8°C 81% Calm Calm -- 30.34 in1027.4 mb - 0.00 in0.0 mm 0.00 in0.0 mm
05:30 PM 34.4°F1.3°C 29.8°F-1.2°C 83% 1.1 mph S1.8 kmh S 2.0 mph3.2 kmh 30.34 in1027.4 mb - 0.00 in0.0 mm 0.00 in0.0 mm
06:00 PM 33.1°F0.6°C 29.4°F-1.4°C 86% Calm Calm -- 30.34 in1027.4 mb - 0.00 in0.0 mm 0.00 in0.0 mm
06:30 PM 32.2°F0.1°C 29.0°F-1.7°C 88% Calm Calm -- 30.33 in1027.1 mb - 0.00 in0.0 mm 0.00 in0.0 mm
07:00 PM 31.6°F-0.2°C 29.0°F-1.7°C 90% Calm Calm -- 30.34 in1027.4 mb - 0.00 in0.0 mm 0.00 in0.0 mm
07:30 PM 31.6°F-0.2°C 29.3°F-1.5°C 91% 0.5 mph S0.8 kmh S 2.0 mph3.2 kmh 30.34 in1027.4 mb - 0.00 in0.0 mm 0.00 in0.0 mm
08:00 PM 31.8°F-0.1°C 29.7°F-1.3°C 92% 0.1 mph S0.2 kmh S 1.0 mph1.6 kmh 30.33 in1027.1 mb - 0.00 in0.0 mm 0.00 in0.0 mm
08:30 PM 31.5°F-0.3°C 29.4°F-1.4°C 92% Calm Calm -- 30.34 in1027.4 mb - 0.00 in0.0 mm 0.00 in0.0 mm
09:00 PM 31.3°F-0.4°C 29.2°F-1.6°C 92% Calm Calm -- 30.32 in1026.8 mb - 0.00 in0.0 mm 0.00 in0.0 mm
09:30 PM 31.3°F-0.4°C 29.5°F-1.4°C 93% Calm Calm -- 30.32 in1026.8 mb - 0.00 in0.0 mm 0.00 in0.0 mm
10:00 PM 31.5°F-0.3°C 29.7°F-1.3°C 93% Calm Calm -- 30.31 in1026.4 mb - 0.00 in0.0 mm 0.00 in0.0 mm
10:30 PM 31.5°F-0.3°C 29.7°F-1.3°C 93% 0.8 mph S1.3 kmh S 2.0 mph3.2 kmh 30.31 in1026.4 mb - 0.00 in0.0 mm 0.00 in0.0 mm
11:00 PM 31.9°F-0.1°C 30.4°F-0.9°C 94% 1.3 mph S2.1 kmh S 2.0 mph3.2 kmh 30.31 in1026.4 mb - 0.00 in0.0 mm 0.00 in0.0 mm
11:30 PM 32.4°F0.2°C 30.6°F-0.8°C 93% 0.6 mph WSW1.0 kmh WSW 2.0 mph3.2 kmh 30.30 in1026.1 mb - 0.00 in0.0 mm 0.00 in0.0 mm